»·PEaware :: SKY103 KDLS-KMMV

SKY103 :: KDLS-KMMV

FLIGHT INFORMATION

Flight Status: Arrived
Operator:
Sky High Charters
More flights by this operator :: More flights under this callsign
Pilot: Andrew C. (28419)
Aircraft: SOCATA TBM-900
(TBM9)
More flights by this aircraft type
Origin: KDLS Columbia Gorge Regl/The Dalle
United States
Destination: KMMV McMinnville Mun
United States
More flights between these airports :: More routes between these airports
Route: DALLS1 LTJ V112 BTG V287 UBG
File this flight plan on PilotEdge
Remarks:
Altitude:
(Current/Filed)
8,000ft
Speed:
(Current/Filed)
275kts
Departed: 19-Sep-20 08:21 AM
Arrived: 19-Sep-20 08:56 AM
Distance/Time
Traveled:
87nm/0:34
Distance/Time
To Go:
Arrived

Flight Plot

Page will automatically refresh every two minutes.

Flight plan parsing failed; only flown route is shown


Map Options




Map Legend


Flown Route
Filed Route
Departure Airport
Arrival Airport
Navaid (VOR, NDB)
Fix

Horizontal Profiles

Position Reports

Time Latitude Longitude Heading Altitude Ground
Speed
19-Sep-20 08:03 45.618763 -121.173843 88 222ft 0kts
19-Sep-20 08:04 45.618763 -121.173843 88 222ft 0kts
19-Sep-20 08:05 45.618763 -121.173843 88 222ft 0kts
19-Sep-20 08:05 45.618763 -121.173843 88 222ft 0kts
19-Sep-20 08:07 45.618763 -121.173843 88 222ft 0kts
19-Sep-20 08:08 45.618763 -121.173843 88 222ft 0kts
19-Sep-20 08:08 45.618763 -121.173843 88 222ft 0kts
19-Sep-20 08:10 45.618763 -121.173843 88 222ft 0kts
19-Sep-20 08:11 45.618763 -121.173843 88 222ft 0kts
19-Sep-20 08:11 45.618763 -121.173843 88 222ft 0kts
19-Sep-20 08:12 45.618763 -121.173843 88 222ft 0kts
19-Sep-20 08:13 45.618763 -121.173843 88 222ft 0kts
19-Sep-20 08:14 45.618771 -121.173726 78 222ft 4kts
19-Sep-20 08:15 45.618083 -121.170644 145 228ft 6kts
19-Sep-20 08:16 45.616429 -121.168096 101 234ft 14kts
19-Sep-20 08:17 45.613611 -121.164799 144 242ft 9kts
19-Sep-20 08:18 45.612185 -121.163078 103 243ft 0kts
19-Sep-20 08:19 45.612185 -121.163078 103 243ft 0kts
19-Sep-20 08:20 45.617684 -121.167453 322 271ft 111kts
19-Sep-20 08:21 45.621620 -121.202802 184 2443ft 133kts
19-Sep-20 08:22 45.591076 -121.171404 138 4763ft 139kts
19-Sep-20 08:23 45.563027 -121.131513 137 6840ft 146kts
19-Sep-20 08:24 45.562348 -121.082695 12 8068ft 190kts
19-Sep-20 08:25 45.623987 -121.088154 351 8018ft 241kts
19-Sep-20 08:26 45.693039 -121.097887 351 8009ft 249kts
19-Sep-20 08:27 45.732974 -121.153280 246 8006ft 245kts
19-Sep-20 08:28 45.718826 -121.247684 270 8008ft 244kts
19-Sep-20 08:29 45.720624 -121.346237 272 8008ft 244kts
19-Sep-20 08:30 45.723220 -121.444085 273 8007ft 243kts
19-Sep-20 08:31 45.725776 -121.542144 273 8007ft 243kts
19-Sep-20 08:32 45.728247 -121.639835 273 8007ft 243kts
19-Sep-20 08:33 45.730574 -121.735099 272 8009ft 243kts
19-Sep-20 08:34 45.732874 -121.832564 272 8009ft 242kts
19-Sep-20 08:35 45.735081 -121.929822 272 8009ft 242kts
19-Sep-20 08:36 45.737182 -122.026852 272 8029ft 242kts
19-Sep-20 08:37 45.739200 -122.123594 272 8051ft 241kts
19-Sep-20 08:38 45.741154 -122.221075 272 7989ft 242kts
19-Sep-20 08:39 45.743009 -122.317938 272 7989ft 242kts
19-Sep-20 08:40 45.744793 -122.415584 272 7989ft 242kts
19-Sep-20 08:41 45.746492 -122.512604 272 7989ft 242kts
19-Sep-20 08:42 45.732206 -122.602300 211 7985ft 252kts
19-Sep-20 08:43 45.668615 -122.647164 209 7996ft 254kts
19-Sep-20 08:44 45.604997 -122.691710 208 7121ft 242kts
19-Sep-20 08:45 45.546014 -122.732918 208 6074ft 229kts
19-Sep-20 08:46 45.488770 -122.772844 207 5063ft 225kts
19-Sep-20 08:47 45.432250 -122.812137 206 4064ft 224kts
19-Sep-20 08:48 45.375834 -122.851275 206 3114ft 220kts
19-Sep-20 08:49 45.323694 -122.887351 206 3096ft 198kts
19-Sep-20 08:50 45.288531 -122.936981 233 2400ft 178kts
19-Sep-20 08:51 45.267615 -122.989259 225 1898ft 131kts
19-Sep-20 08:52 45.245185 -123.030859 237 1856ft 139kts
19-Sep-20 08:53 45.224057 -123.077124 237 1075ft 134kts
19-Sep-20 08:54 45.206967 -123.114707 236 477ft 84kts
19-Sep-20 08:55 45.195582 -123.139750 236 160ft 28kts
19-Sep-20 08:56 45.196437 -123.140797 56 160ft 12kts
19-Sep-20 08:57 45.198461 -123.138631 58 161ft 0kts

Navigation Log

Ident Type
Flight plan parsing failed, navigation log unavailable